createdAt,value
2023-05-18T00:01:41.103Z,11.40
2023-05-18T00:04:24.292Z,12.30
2023-05-18T00:07:07.788Z,10.20
2023-05-18T00:09:50.726Z,12.20
2023-05-18T00:12:33.775Z,8.30
2023-05-18T00:15:16.675Z,11.20
2023-05-18T00:17:59.718Z,11.80
2023-05-18T00:20:43.851Z,8.50
2023-05-18T00:23:30.073Z,12.80
2023-05-18T00:26:13.649Z,8.60
2023-05-18T00:28:57.816Z,8.70
2023-05-18T00:31:42.717Z,11.80
2023-05-18T00:34:26.302Z,12.30
2023-05-18T00:37:09.215Z,11.20
2023-05-18T00:39:52.238Z,9.60
2023-05-18T00:42:35.151Z,12.00
2023-05-18T00:45:19.565Z,15.00
2023-05-18T00:48:02.600Z,22.70
2023-05-18T00:50:46.441Z,21.30
2023-05-18T00:53:30.047Z,16.00
2023-05-18T00:56:13.832Z,12.20
2023-05-18T00:58:57.689Z,15.80
2023-05-18T01:02:07.766Z,16.60
2023-05-18T01:06:11.804Z,17.10
2023-05-18T01:09:52.008Z,14.50
2023-05-18T01:13:40.704Z,10.40
2023-05-18T01:17:58.690Z,16.90
2023-05-18T01:22:04.767Z,14.20
2023-05-18T01:25:57.279Z,9.70
2023-05-18T01:29:39.891Z,13.60
2023-05-18T01:33:42.985Z,17.50
2023-05-18T01:37:30.777Z,13.20
2023-05-18T01:41:37.488Z,11.30
2023-05-18T01:45:41.414Z,7.70
2023-05-18T01:49:19.563Z,8.40
2023-05-18T01:53:08.387Z,14.00
2023-05-18T01:56:48.479Z,11.30
2023-05-18T02:00:20.341Z,9.50
2023-05-18T02:04:18.220Z,12.30
2023-05-18T02:08:05.001Z,15.90
2023-05-18T02:11:58.728Z,10.20
2023-05-18T02:15:35.488Z,9.70
2023-05-18T02:19:39.356Z,6.30
2023-05-18T02:23:22.476Z,10.90
2023-05-18T02:27:07.590Z,10.40
2023-05-18T02:31:04.444Z,8.10
2023-05-18T02:34:35.961Z,14.40
2023-05-18T02:38:22.895Z,12.50
2023-05-18T02:42:16.726Z,14.20
2023-05-18T02:46:02.548Z,11.60
2023-05-18T02:49:56.146Z,14.40
2023-05-18T02:53:51.080Z,17.50
2023-05-18T02:57:12.122Z,14.10
2023-05-18T03:00:58.295Z,13.40
2023-05-18T03:04:52.642Z,13.80
2023-05-18T03:12:31.419Z,13.50
2023-05-18T03:16:35.411Z,9.40
2023-05-18T03:20:20.532Z,9.80
2023-05-18T03:24:24.449Z,9.40
2023-05-18T03:28:11.968Z,16.80
2023-05-18T03:31:55.843Z,12.10
2023-05-18T03:35:32.912Z,14.90
2023-05-18T03:39:37.963Z,10.50
2023-05-18T03:43:32.928Z,14.70
2023-05-18T03:47:30.126Z,11.00
2023-05-18T03:51:34.124Z,13.10
2023-05-18T03:55:13.196Z,12.10
2023-05-18T03:59:05.864Z,12.40
2023-05-18T04:02:51.515Z,12.10
2023-05-18T04:06:55.714Z,12.00
2023-05-18T04:10:50.001Z,14.70
2023-05-18T04:14:19.017Z,10.40
2023-05-18T04:18:13.250Z,13.30
2023-05-18T04:21:47.515Z,11.80
2023-05-18T04:25:30.544Z,11.10
2023-05-18T04:28:57.305Z,14.80
2023-05-18T04:32:54.456Z,12.00
2023-05-18T04:36:30.975Z,18.90
2023-05-18T04:40:15.271Z,25.30
2023-05-18T04:44:09.262Z,20.50
2023-05-18T04:47:56.670Z,12.20
2023-05-18T04:51:41.945Z,19.20
2023-05-18T04:55:23.004Z,8.90
2023-05-18T04:59:10.264Z,14.20
2023-05-18T05:02:54.306Z,7.90
2023-05-18T05:05:46.787Z,11.00
2023-05-18T05:09:14.742Z,12.60
2023-05-18T05:12:59.850Z,9.00
2023-05-18T05:16:03.542Z,9.40
2023-05-18T05:19:49.973Z,8.20
2023-05-18T05:22:41.161Z,6.20
2023-05-18T05:26:05.141Z,8.40
2023-05-18T05:29:21.993Z,5.30
2023-05-18T05:32:25.908Z,10.40
2023-05-18T05:35:49.731Z,10.10
2023-05-18T05:38:53.246Z,9.00
2023-05-18T05:42:06.257Z,6.50
2023-05-18T05:45:52.075Z,9.20
2023-05-18T05:49:08.549Z,6.00
2023-05-18T05:52:32.004Z,7.90
2023-05-18T05:55:46.741Z,5.90
2023-05-18T05:58:58.636Z,8.40
2023-05-18T06:02:11.403Z,11.00
2023-05-18T06:05:16.095Z,7.40
2023-05-18T06:08:18.600Z,7.70
2023-05-18T06:11:42.387Z,6.50
2023-05-18T06:14:56.972Z,8.10
2023-05-18T06:18:08.152Z,3.40
2023-05-18T06:20:58.224Z,5.00
2023-05-18T06:24:07.305Z,4.50
2023-05-18T06:27:56.885Z,9.50
2023-05-18T06:31:24.418Z,2.80
2023-05-18T06:34:52.385Z,5.50
2023-05-18T06:38:36.242Z,7.90
2023-05-18T06:45:15.582Z,5.20
2023-05-18T06:48:38.931Z,2.80
2023-05-18T06:51:55.311Z,6.20
2023-05-18T06:55:59.209Z,3.20
2023-05-18T06:59:06.628Z,6.40
2023-05-18T07:02:10.883Z,3.60
2023-05-18T07:05:19.203Z,4.50
2023-05-18T07:08:25.874Z,3.20
2023-05-18T07:11:45.635Z,7.30
2023-05-18T07:14:41.888Z,4.80
2023-05-18T07:18:35.875Z,6.40
2023-05-18T07:21:42.354Z,5.40
2023-05-18T07:25:16.931Z,5.70
2023-05-18T07:28:47.937Z,4.50
2023-05-18T07:32:14.890Z,2.20
2023-05-18T07:35:38.612Z,3.20
2023-05-18T07:39:22.411Z,4.30
2023-05-18T07:42:22.636Z,2.20
2023-05-18T07:45:37.226Z,5.10
2023-05-18T07:48:45.181Z,3.40
2023-05-18T07:51:48.483Z,1.70
2023-05-18T07:55:06.700Z,4.60
2023-05-18T07:58:22.927Z,1.10
2023-05-18T08:01:28.274Z,4.40
2023-05-18T08:04:23.873Z,4.20
2023-05-18T08:07:24.084Z,7.50
2023-05-18T08:10:38.877Z,1.90
2023-05-18T08:13:27.225Z,3.10
2023-05-18T08:16:34.912Z,6.50
2023-05-18T08:19:21.111Z,3.60
2023-05-18T08:22:54.957Z,5.10
2023-05-18T08:26:13.240Z,8.10
2023-05-18T08:29:19.097Z,7.10
2023-05-18T08:32:02.828Z,2.40
2023-05-18T08:34:46.826Z,4.00
2023-05-18T08:37:40.226Z,4.80
2023-05-18T08:40:26.780Z,4.10
2023-05-18T08:43:20.785Z,3.60
2023-05-18T08:46:40.052Z,7.70
2023-05-18T08:49:35.995Z,3.70
2023-05-18T08:52:24.671Z,7.30
2023-05-18T08:55:12.180Z,5.30
2023-05-18T08:58:09.329Z,3.20
2023-05-18T09:01:06.065Z,4.90
2023-05-18T09:03:53.933Z,5.90
2023-05-18T09:06:38.260Z,7.50
2023-05-18T09:09:24.590Z,3.70
2023-05-18T09:12:11.826Z,4.70
2023-05-18T09:15:03.829Z,7.30
2023-05-18T09:17:57.283Z,4.50
2023-05-18T09:21:00.925Z,5.20
2023-05-18T09:23:47.206Z,3.00
2023-05-18T09:26:31.003Z,4.80
2023-05-18T09:29:21.957Z,2.90
2023-05-18T09:32:10.985Z,2.20
2023-05-18T09:34:55.517Z,2.60
2023-05-18T09:37:47.559Z,5.50
2023-05-18T09:40:37.195Z,4.10
2023-05-18T09:43:22.788Z,1.20
2023-05-18T09:46:36.182Z,3.10
2023-05-18T09:49:26.760Z,4.60
2023-05-18T09:52:21.282Z,2.00
2023-05-18T09:55:28.723Z,5.00
2023-05-18T09:58:14.458Z,1.90
2023-05-18T10:01:07.078Z,4.40
2023-05-18T10:04:13.184Z,2.90
2023-05-18T10:07:19.639Z,2.00
2023-05-18T10:10:20.659Z,2.40
2023-05-18T10:13:37.654Z,3.60
2023-05-18T10:17:00.294Z,4.10
2023-05-18T10:19:58.629Z,2.20
2023-05-18T10:23:09.941Z,4.90
2023-05-18T10:26:03.344Z,3.40
2023-05-18T10:28:49.040Z,3.80
2023-05-18T10:32:15.555Z,4.10
2023-05-18T10:35:28.285Z,2.50
2023-05-18T10:38:20.431Z,4.00
2023-05-18T10:41:33.972Z,4.30
2023-05-18T10:44:37.980Z,2.30
2023-05-18T10:47:33.779Z,5.10
2023-05-18T10:50:49.838Z,1.20
2023-05-18T10:57:21.066Z,2.60
2023-05-18T11:00:35.283Z,2.80
2023-05-18T11:03:45.283Z,4.80
2023-05-18T11:06:54.554Z,2.60
2023-05-18T11:10:11.762Z,3.00
2023-05-18T11:13:11.596Z,4.80
2023-05-18T11:16:05.058Z,6.20
2023-05-18T11:19:10.681Z,4.00
2023-05-18T11:22:04.645Z,4.00
2023-05-18T11:24:48.246Z,1.90
2023-05-18T11:27:36.196Z,1.50
2023-05-18T11:30:44.678Z,1.30
2023-05-18T11:33:32.830Z,2.90
2023-05-18T11:36:33.159Z,3.00
2023-05-18T11:39:24.266Z,1.80
2023-05-18T11:42:14.498Z,8.70
2023-05-18T11:45:06.758Z,3.00
2023-05-18T11:47:50.247Z,4.70
2023-05-18T11:50:33.974Z,2.60
2023-05-18T11:53:20.911Z,1.30
2023-05-18T11:56:13.385Z,2.10
2023-05-18T11:59:14.737Z,4.80
2023-05-18T12:02:06.334Z,3.80
2023-05-18T12:04:53.444Z,2.90
2023-05-18T12:07:38.871Z,6.30
2023-05-18T12:10:23.067Z,2.20
2023-05-18T12:13:09.847Z,5.60
2023-05-18T12:16:04.307Z,4.50
2023-05-18T12:18:51.533Z,5.60
2023-05-18T12:21:40.514Z,4.90
2023-05-18T12:24:23.648Z,5.00
2023-05-18T12:27:09.413Z,10.00
2023-05-18T12:29:52.760Z,1.60
2023-05-18T12:32:36.100Z,4.90
2023-05-18T12:35:28.946Z,5.70
2023-05-18T12:38:23.322Z,3.50
2023-05-18T12:41:11.214Z,4.10
2023-05-18T12:43:58.458Z,10.90
2023-05-18T12:46:45.382Z,2.80
2023-05-18T12:49:28.851Z,0.70
2023-05-18T12:52:16.817Z,3.10
2023-05-18T12:55:00.845Z,1.90
2023-05-18T12:57:44.068Z,2.50
2023-05-18T13:00:48.614Z,3.70
2023-05-18T13:03:35.305Z,3.00
2023-05-18T13:06:21.802Z,2.20
2023-05-18T13:09:12.726Z,1.40
2023-05-18T13:12:07.580Z,2.80
2023-05-18T13:14:54.241Z,1.30
2023-05-18T13:18:00.452Z,2.60
2023-05-18T13:20:52.920Z,4.90
2023-05-18T13:23:39.213Z,1.50
2023-05-18T13:26:23.460Z,1.10
2023-05-18T13:29:09.318Z,2.50
2023-05-18T13:32:12.591Z,3.90
2023-05-18T13:34:55.946Z,1.10
2023-05-18T13:37:40.572Z,3.00
2023-05-18T13:40:25.759Z,2.60
2023-05-18T13:43:32.095Z,2.80
2023-05-18T13:46:20.076Z,7.90
2023-05-18T13:49:06.164Z,4.50
2023-05-18T13:51:54.428Z,4.20
2023-05-18T13:54:40.094Z,5.80
2023-05-18T13:57:30.926Z,4.10
2023-05-18T14:00:16.954Z,5.00
2023-05-18T14:03:02.815Z,3.20
2023-05-18T14:05:46.667Z,5.80
2023-05-18T14:08:32.213Z,8.80
2023-05-18T14:11:36.824Z,3.80
2023-05-18T14:14:30.259Z,3.70
2023-05-18T14:17:25.002Z,1.20
2023-05-18T14:20:32.935Z,3.70
2023-05-18T14:23:42.385Z,3.10
2023-05-18T14:26:34.440Z,3.30
2023-05-18T14:29:26.556Z,4.10
2023-05-18T14:32:37.799Z,3.50
2023-05-18T14:35:21.209Z,5.60
2023-05-18T14:38:27.013Z,8.30
2023-05-18T14:41:30.503Z,5.20
2023-05-18T14:44:47.930Z,5.10
2023-05-18T14:48:01.789Z,2.00
2023-05-18T14:51:36.703Z,5.40
2023-05-18T14:55:11.473Z,3.80
2023-05-18T14:58:15.035Z,3.90
2023-05-18T15:01:05.753Z,2.30
2023-05-18T15:04:12.374Z,4.00
2023-05-18T15:07:15.758Z,10.10
2023-05-18T15:10:07.108Z,3.90
2023-05-18T15:13:10.194Z,3.10
2023-05-18T15:16:14.992Z,6.20
2023-05-18T15:19:05.783Z,5.20
2023-05-18T15:21:57.774Z,1.60
2023-05-18T15:25:21.159Z,4.10
2023-05-18T15:28:27.070Z,6.40
2023-05-18T15:31:40.126Z,2.20
2023-05-18T15:34:35.615Z,5.90
2023-05-18T15:37:59.126Z,4.50
2023-05-18T15:41:13.498Z,3.50
2023-05-18T15:44:27.509Z,4.50
2023-05-18T15:47:53.122Z,5.70
2023-05-18T15:50:39.058Z,3.10
2023-05-18T15:53:44.197Z,6.10
2023-05-18T15:56:47.572Z,5.40
2023-05-18T15:59:49.285Z,5.70
2023-05-18T16:02:41.651Z,4.30
2023-05-18T16:05:37.582Z,3.30
2023-05-18T16:08:21.328Z,13.10
2023-05-18T16:11:07.680Z,2.10
2023-05-18T16:13:56.062Z,3.60
2023-05-18T16:16:40.655Z,12.90
2023-05-18T16:19:26.589Z,8.30
2023-05-18T16:22:28.939Z,9.40
2023-05-18T16:25:12.175Z,4.70
2023-05-18T16:27:55.581Z,5.10
2023-05-18T16:30:51.484Z,12.50
2023-05-18T16:33:35.516Z,3.70
2023-05-18T16:36:20.986Z,3.30
2023-05-18T16:39:04.404Z,5.40
2023-05-18T16:41:50.713Z,6.60
2023-05-18T16:44:37.492Z,4.60
2023-05-18T16:47:20.766Z,4.70
2023-05-18T16:50:13.484Z,11.40
2023-05-18T16:52:57.085Z,3.90
2023-05-18T16:55:53.547Z,3.10
2023-05-18T16:58:36.956Z,4.30
2023-05-18T17:01:28.817Z,5.40
2023-05-18T17:04:14.950Z,7.20
2023-05-18T17:07:00.629Z,5.00
2023-05-18T17:09:44.103Z,6.40
2023-05-18T17:12:39.976Z,6.40
2023-05-18T17:15:25.591Z,4.70
2023-05-18T17:18:29.015Z,5.50
2023-05-18T17:21:17.163Z,3.60
2023-05-18T17:24:02.924Z,6.00
2023-05-18T17:26:48.983Z,4.70
2023-05-18T17:29:37.992Z,6.30
2023-05-18T17:32:23.738Z,5.70
2023-05-18T17:35:12.490Z,5.20
2023-05-18T17:38:00.252Z,4.50
2023-05-18T17:40:51.952Z,4.50
2023-05-18T17:43:47.851Z,4.20
2023-05-18T17:46:41.631Z,7.90
2023-05-18T17:49:37.543Z,9.90
2023-05-18T17:52:21.056Z,11.00
2023-05-18T17:55:10.513Z,7.50
2023-05-18T17:57:56.529Z,7.20
2023-05-18T18:01:00.183Z,6.70
2023-05-18T18:03:57.039Z,3.90
2023-05-18T18:07:02.961Z,3.20
2023-05-18T18:09:51.591Z,2.80
2023-05-18T18:12:44.829Z,6.70
2023-05-18T18:15:35.667Z,8.40
2023-05-18T18:18:22.222Z,5.00
2023-05-18T18:21:26.332Z,4.40
2023-05-18T18:24:22.315Z,4.60
2023-05-18T18:27:28.636Z,7.30
2023-05-18T18:30:25.249Z,12.30
2023-05-18T18:33:20.875Z,4.50
2023-05-18T18:36:19.536Z,7.50
2023-05-18T18:39:21.406Z,10.10
2023-05-18T18:42:21.041Z,8.00
2023-05-18T18:45:26.533Z,7.20
2023-05-18T18:48:28.952Z,14.60
2023-05-18T18:51:48.337Z,5.60
2023-05-18T18:54:43.217Z,9.30
2023-05-18T18:57:45.381Z,5.50
2023-05-18T19:00:43.130Z,5.10
2023-05-18T19:04:09.400Z,15.10
2023-05-18T19:07:23.139Z,12.30
2023-05-18T19:10:39.351Z,5.90
2023-05-18T19:14:05.845Z,8.60
2023-05-18T19:17:23.536Z,8.50
2023-05-18T19:20:59.073Z,12.90
2023-05-18T19:24:07.596Z,15.90
2023-05-18T19:27:22.999Z,15.60
2023-05-18T19:30:24.133Z,15.60
2023-05-18T19:34:01.446Z,21.10
2023-05-18T19:37:06.629Z,21.50
2023-05-18T19:40:28.956Z,24.00
2023-05-18T19:44:05.749Z,30.80
2023-05-18T19:47:56.360Z,31.80
2023-05-18T19:51:04.173Z,28.70
2023-05-18T19:54:23.251Z,24.30
2023-05-18T19:57:55.888Z,18.00
2023-05-18T20:01:00.245Z,40.80
2023-05-18T20:04:19.714Z,19.50
2023-05-18T20:07:46.287Z,21.30
2023-05-18T20:10:59.089Z,20.10
2023-05-18T20:14:20.225Z,22.00
2023-05-18T20:17:52.667Z,20.80
2023-05-18T20:21:10.878Z,21.30
2023-05-18T20:24:23.072Z,25.00
2023-05-18T20:27:31.687Z,26.10
2023-05-18T20:30:27.272Z,21.00
2023-05-18T20:33:22.769Z,23.70
2023-05-18T20:37:16.474Z,20.50
2023-05-18T20:44:08.431Z,22.70
2023-05-18T20:47:32.806Z,23.60
2023-05-18T20:51:00.921Z,23.60
2023-05-18T20:54:59.439Z,29.10
2023-05-18T20:57:53.083Z,20.10
2023-05-18T21:01:57.078Z,22.90
2023-05-18T21:05:43.362Z,18.40
2023-05-18T21:09:30.424Z,23.40
2023-05-18T21:12:34.216Z,12.40
2023-05-18T21:15:37.779Z,14.60
2023-05-18T21:18:37.479Z,9.60
2023-05-18T21:21:48.838Z,7.40
2023-05-18T21:25:15.560Z,8.50
2023-05-18T21:28:26.320Z,6.90
2023-05-18T21:32:11.424Z,5.70
2023-05-18T21:35:45.517Z,5.40
2023-05-18T21:39:16.712Z,5.20
2023-05-18T21:42:32.774Z,9.80
2023-05-18T21:46:07.766Z,5.00
2023-05-18T21:49:13.153Z,7.20
2023-05-18T21:52:33.055Z,7.00
2023-05-18T21:55:47.128Z,4.20
2023-05-18T21:59:34.521Z,6.00
2023-05-18T22:03:29.433Z,4.10
2023-05-18T22:06:20.634Z,4.80
2023-05-18T22:10:05.275Z,7.40
2023-05-18T22:13:20.452Z,13.00
2023-05-18T22:16:45.566Z,4.40
2023-05-18T22:20:13.889Z,8.90
2023-05-18T22:23:48.102Z,8.10
2023-05-18T22:27:13.210Z,5.20
2023-05-18T22:30:41.238Z,8.20
2023-05-18T22:34:35.410Z,8.00
2023-05-18T22:38:24.753Z,6.10
2023-05-18T22:42:01.938Z,8.90
2023-05-18T22:46:06.107Z,7.00
2023-05-18T22:49:51.333Z,9.60
2023-05-18T22:53:45.201Z,3.70
2023-05-18T22:57:09.965Z,14.50
2023-05-18T23:04:08.952Z,3.10
2023-05-18T23:07:52.867Z,5.90
2023-05-18T23:14:55.831Z,4.60
2023-05-18T23:18:50.765Z,6.00
2023-05-18T23:22:38.148Z,4.90
2023-05-18T23:26:04.758Z,6.30
2023-05-18T23:33:25.724Z,2.60
2023-05-18T23:37:02.952Z,5.50
2023-05-18T23:40:53.225Z,5.10
2023-05-18T23:44:02.362Z,4.60
2023-05-18T23:50:18.818Z,3.00
2023-05-18T23:53:15.342Z,7.10
2023-05-18T23:56:32.384Z,4.20
